Time;durP1;ratioP1;P1;durP2;ratioP2;P2;SDS_P1;SDS_P2;PMS_P1;PMS_P2;Temp;Humidity;BMP_temperature;BMP_pressure;BME280_temperature;BME280_humidity;BME280_pressure;Samples;Min_cycle;Max_cycle;Signal;HPM_P1;HPM_P2
2024/01/04 00:02:05;;;;;;;;;;;6.00;99.90;;;;;;5073464;28;20038;-64
2024/01/04 00:04:31;;;;;;;;;;;6.00;99.90;;;;;;5073938;28;19920;-63
2024/01/04 00:06:56;;;;;;;;;;;6.00;99.90;;;;;;5075545;28;19927;-63
2024/01/04 00:09:22;;;;;;;;;;;6.00;99.90;;;;;;5054807;28;19928;-63
2024/01/04 00:11:47;;;;;;;;;;;6.00;99.90;;;;;;5094582;28;19928;-63
2024/01/04 00:14:13;;;;;;;;;;;6.00;99.90;;;;;;5073653;28;19930;-63
2024/01/04 00:16:39;;;;;;;;;;;5.90;99.90;;;;;;5074707;28;19928;-63
2024/01/04 00:19:04;;;;;;;;;;;5.90;99.90;;;;;;5068695;28;19924;-63
2024/01/04 00:21:30;;;;;;;;;;;5.90;99.90;;;;;;5043410;28;20006;-64
2024/01/04 00:23:57;;;;;;;;;;;5.90;99.90;;;;;;5069257;28;19924;-63
2024/01/04 00:26:23;;;;;;;;;;;5.90;99.90;;;;;;5067925;28;19928;-62
2024/01/04 00:28:48;;;;;;;;;;;5.90;99.90;;;;;;5090344;28;20393;-63
2024/01/04 00:31:14;;;;;;;;;;;5.90;99.90;;;;;;5070620;28;19935;-63
2024/01/04 00:33:39;;;;;;;;;;;5.90;99.90;;;;;;5088873;28;19920;-64
2024/01/04 00:36:06;;;;;;;;;;;5.80;99.90;;;;;;5069706;28;21050;-62
2024/01/04 00:38:31;;;;;;;;;;;5.80;99.90;;;;;;5057327;28;19934;-62
2024/01/04 00:40:57;;;;;;;;;;;5.80;99.90;;;;;;5073186;28;19924;-63
2024/01/04 00:43:22;;;;;;;;;;;5.80;99.90;;;;;;5073191;28;19932;-63
2024/01/04 00:45:48;;;;;;;;;;;5.80;99.90;;;;;;5087294;28;20287;-63
2024/01/04 00:48:14;;;;;;;;;;;5.80;99.90;;;;;;5068304;28;19924;-63
2024/01/04 00:50:39;;;;;;;;;;;5.70;99.90;;;;;;5075018;28;21435;-64
2024/01/04 00:53:05;;;;;;;;;;;5.70;99.90;;;;;;5067472;28;20014;-63
2024/01/04 00:55:30;;;;;;;;;;;5.70;99.90;;;;;;5083832;28;19990;-63
2024/01/04 00:57:56;;;;;;;;;;;5.70;99.90;;;;;;5041491;28;19923;-63
2024/01/04 01:00:22;;;;;;;;;;;5.70;99.90;;;;;;5072030;28;19932;-62
2024/01/04 01:02:47;;;;;;;;;;;5.70;99.90;;;;;;5065595;28;19932;-63
2024/01/04 01:05:13;;;;;;;;;;;5.70;99.90;;;;;;5060228;28;19931;-63
2024/01/04 01:07:38;;;;;;;;;;;5.60;99.90;;;;;;5077718;28;19924;-63
2024/01/04 01:10:04;;;;;;;;;;;5.60;99.90;;;;;;5067933;28;19919;-63
2024/01/04 01:12:29;;;;;;;;;;;5.60;99.90;;;;;;5066326;28;19924;-64
2024/01/04 01:14:55;;;;;;;;;;;5.60;99.90;;;;;;5065929;28;20468;-61
2024/01/04 01:17:21;;;;;;;;;;;5.60;99.90;;;;;;5087972;28;19928;-63
2024/01/04 01:19:46;;;;;;;;;;;5.50;99.90;;;;;;5069858;28;19923;-63
2024/01/04 01:22:12;;;;;;;;;;;5.60;99.90;;;;;;5065614;28;19931;-63
2024/01/04 01:24:39;;;;;;;;;;;5.50;99.90;;;;;;5067054;28;19931;-63
2024/01/04 01:27:04;;;;;;;;;;;5.50;99.90;;;;;;5079812;28;19923;-63
2024/01/04 01:29:30;;;;;;;;;;;5.50;99.90;;;;;;5055298;28;19934;-63
2024/01/04 01:31:55;;;;;;;;;;;5.50;99.90;;;;;;5064506;28;19921;-63
2024/01/04 01:34:21;;;;;;;;;;;5.40;99.90;;;;;;5064784;28;19927;-63
2024/01/04 01:36:47;;;;;;;;;;;5.40;99.90;;;;;;5051741;28;20014;-63
2024/01/04 01:39:12;;;;;;;;;;;5.40;99.90;;;;;;5074174;28;19929;-63
2024/01/04 01:41:38;;;;;;;;;;;5.30;99.90;;;;;;5064739;28;20078;-63
2024/01/04 01:44:03;;;;;;;;;;;5.30;99.90;;;;;;5054432;28;19920;-63
2024/01/04 01:46:29;;;;;;;;;;;5.30;99.90;;;;;;5070075;28;19967;-63
2024/01/04 01:48:55;;;;;;;;;;;5.20;99.90;;;;;;5079256;27;20615;-63
2024/01/04 01:51:20;;;;;;;;;;;5.30;99.90;;;;;;5087889;27;19924;-63
2024/01/04 01:53:46;;;;;;;;;;;5.20;99.90;;;;;;5090331;27;19920;-63
2024/01/04 01:56:12;;;;;;;;;;;5.20;99.90;;;;;;5089759;27;20026;-63
2024/01/04 01:58:38;;;;;;;;;;;5.10;99.90;;;;;;5090579;27;19924;-63
2024/01/04 02:01:03;;;;;;;;;;;5.20;99.90;;;;;;5071359;27;19924;-63
2024/01/04 02:03:29;;;;;;;;;;;5.10;99.90;;;;;;5090398;27;19950;-63
2024/01/04 02:05:54;;;;;;;;;;;5.10;99.90;;;;;;5088778;27;19956;-63
2024/01/04 02:08:20;;;;;;;;;;;5.00;99.90;;;;;;5070213;27;20268;-63
2024/01/04 02:10:46;;;;;;;;;;;5.00;99.90;;;;;;5076230;27;20287;-63
2024/01/04 02:13:12;;;;;;;;;;;5.00;99.90;;;;;;5060955;28;19927;-63
2024/01/04 02:15:38;;;;;;;;;;;5.00;99.90;;;;;;5085620;28;19931;-63
2024/01/04 02:18:04;;;;;;;;;;;5.00;99.90;;;;;;5086578;28;19931;-63
2024/01/04 02:20:29;;;;;;;;;;;4.90;99.90;;;;;;5095647;28;19920;-63
2024/01/04 02:22:55;;;;;;;;;;;4.90;99.90;;;;;;5077828;28;20302;-63
2024/01/04 02:25:20;;;;;;;;;;;4.90;99.90;;;;;;5075112;28;19935;-63
2024/01/04 02:27:46;;;;;;;;;;;4.90;99.90;;;;;;5091817;27;19928;-63
2024/01/04 02:30:12;;;;;;;;;;;4.90;99.90;;;;;;5087691;27;20414;-63
2024/01/04 02:32:37;;;;;;;;;;;4.90;99.90;;;;;;5074856;28;19934;-62
2024/01/04 02:35:03;;;;;;;;;;;4.80;99.90;;;;;;5087987;28;20385;-63
2024/01/04 02:37:29;;;;;;;;;;;4.80;99.90;;;;;;5087996;28;20346;-63
2024/01/04 02:39:54;;;;;;;;;;;4.80;99.90;;;;;;5075734;28;19938;-63
2024/01/04 02:42:20;;;;;;;;;;;4.80;99.90;;;;;;5086274;27;20320;-63
2024/01/04 02:44:46;;;;;;;;;;;4.80;99.90;;;;;;5087232;27;19930;-63
2024/01/04 02:47:11;;;;;;;;;;;4.70;99.90;;;;;;5086809;27;20023;-63
2024/01/04 02:49:38;;;;;;;;;;;4.70;99.90;;;;;;5088088;27;20501;-63
2024/01/04 02:52:03;;;;;;;;;;;4.70;99.90;;;;;;5087027;27;20001;-63
2024/01/04 02:54:29;;;;;;;;;;;4.70;99.90;;;;;;5091706;27;19935;-63
2024/01/04 02:56:54;;;;;;;;;;;4.70;99.90;;;;;;5088814;28;19977;-63
2024/01/04 02:59:20;;;;;;;;;;;4.70;99.90;;;;;;5086003;28;19976;-63
2024/01/04 03:01:48;;;;;;;;;;;4.70;99.90;;;;;;5080532;27;19932;-63
2024/01/04 03:04:14;;;;;;;;;;;4.60;99.90;;;;;;5084592;28;20425;-63
2024/01/04 03:06:40;;;;;;;;;;;4.60;99.90;;;;;;5090240;27;19920;-63
2024/01/04 03:09:06;;;;;;;;;;;4.60;99.90;;;;;;5077458;28;19927;-63
2024/01/04 03:11:31;;;;;;;;;;;4.60;99.90;;;;;;5090455;27;19923;-63
2024/01/04 03:13:57;;;;;;;;;;;4.60;99.90;;;;;;5086641;27;19972;-64
2024/01/04 03:16:23;;;;;;;;;;;4.60;99.90;;;;;;5088509;27;20017;-63
2024/01/04 03:18:48;;;;;;;;;;;4.60;99.90;;;;;;5085322;27;19924;-63
2024/01/04 03:21:14;;;;;;;;;;;4.50;99.90;;;;;;5085802;27;19923;-63
2024/01/04 03:23:40;;;;;;;;;;;4.50;99.90;;;;;;5073475;28;20386;-63
2024/01/04 03:26:05;;;;;;;;;;;4.50;99.90;;;;;;5084737;27;19924;-63
2024/01/04 03:28:31;;;;;;;;;;;4.50;99.90;;;;;;5087255;27;19978;-63
2024/01/04 03:30:57;;;;;;;;;;;4.50;99.90;;;;;;5087376;27;20500;-63
2024/01/04 03:33:22;;;;;;;;;;;4.50;99.90;;;;;;5073419;28;19924;-63
2024/01/04 03:35:48;;;;;;;;;;;4.50;99.90;;;;;;5084623;27;19927;-63
2024/01/04 03:38:13;;;;;;;;;;;4.50;99.90;;;;;;5085482;27;19928;-63
2024/01/04 03:40:39;;;;;;;;;;;4.50;99.90;;;;;;5069161;28;20050;-63
2024/01/04 03:43:04;;;;;;;;;;;4.50;99.90;;;;;;5082428;28;19930;-63
2024/01/04 03:45:33;;;;;;;;;;;4.50;99.90;;;;;;5084164;28;20687;-63
2024/01/04 03:47:59;;;;;;;;;;;4.50;99.90;;;;;;5084046;28;19924;-62
2024/01/04 03:50:25;;;;;;;;;;;4.50;99.90;;;;;;5069713;28;19970;-63
2024/01/04 03:52:50;;;;;;;;;;;4.50;99.90;;;;;;5073528;28;20014;-63
2024/01/04 03:55:16;;;;;;;;;;;4.50;99.90;;;;;;5082414;28;19939;-63
2024/01/04 03:57:42;;;;;;;;;;;4.50;99.90;;;;;;5058606;28;20683;-63
2024/01/04 04:00:08;;;;;;;;;;;4.50;99.90;;;;;;5066559;28;20381;-63
2024/01/04 04:02:34;;;;;;;;;;;4.50;99.90;;;;;;5089291;28;19938;-63
2024/01/04 04:04:59;;;;;;;;;;;4.50;99.90;;;;;;5070007;28;19923;-63
2024/01/04 04:07:25;;;;;;;;;;;4.50;99.90;;;;;;5065149;28;19924;-62
2024/01/04 04:09:50;;;;;;;;;;;4.50;99.90;;;;;;5056634;28;19920;-63
2024/01/04 04:12:16;;;;;;;;;;;4.50;99.90;;;;;;5060227;28;20532;-63
2024/01/04 04:14:42;;;;;;;;;;;4.40;99.90;;;;;;5067285;28;19928;-63
2024/01/04 04:17:07;;;;;;;;;;;4.50;99.90;;;;;;5068318;28;20368;-63
2024/01/04 04:19:33;;;;;;;;;;;4.50;99.90;;;;;;5070312;28;19923;-63
2024/01/04 04:21:59;;;;;;;;;;;4.40;99.90;;;;;;5067246;28;20372;-62
2024/01/04 04:24:24;;;;;;;;;;;4.40;99.90;;;;;;5070007;28;19928;-63
2024/01/04 04:26:50;;;;;;;;;;;4.40;99.90;;;;;;5089047;28;20015;-63
2024/01/04 04:29:15;;;;;;;;;;;4.30;99.90;;;;;;5067405;28;20271;-63
2024/01/04 04:31:41;;;;;;;;;;;4.40;99.90;;;;;;5083454;28;20453;-63
2024/01/04 04:34:06;;;;;;;;;;;4.30;99.90;;;;;;5075391;28;19939;-63
2024/01/04 04:36:32;;;;;;;;;;;4.30;99.90;;;;;;5057121;28;20014;-63
2024/01/04 04:39:02;;;;;;;;;;;4.30;99.90;;;;;;5067269;28;19934;-63
2024/01/04 04:41:27;;;;;;;;;;;4.30;99.90;;;;;;5068542;28;19978;-63
2024/01/04 04:43:53;;;;;;;;;;;4.30;99.90;;;;;;5074524;28;20015;-63
2024/01/04 04:46:18;;;;;;;;;;;4.20;99.90;;;;;;5063676;28;20524;-63
2024/01/04 04:48:44;;;;;;;;;;;4.30;99.90;;;;;;5068411;28;19989;-63
2024/01/04 04:51:10;;;;;;;;;;;4.30;99.90;;;;;;5068485;28;20629;-63
2024/01/04 04:53:36;;;;;;;;;;;4.30;99.90;;;;;;5053959;28;20278;-63
2024/01/04 04:56:02;;;;;;;;;;;4.30;99.90;;;;;;5061808;28;19935;-63
2024/01/04 04:58:28;;;;;;;;;;;4.30;99.90;;;;;;5086263;28;19927;-63
2024/01/04 05:00:54;;;;;;;;;;;4.30;99.90;;;;;;5070084;28;19935;-63
2024/01/04 05:03:19;;;;;;;;;;;4.30;99.90;;;;;;5056323;28;20393;-63
2024/01/04 05:05:45;;;;;;;;;;;4.30;99.90;;;;;;5052345;28;19927;-62
2024/01/04 05:08:10;;;;;;;;;;;4.30;99.90;;;;;;5064322;28;20470;-63
2024/01/04 05:10:36;;;;;;;;;;;4.30;99.90;;;;;;5083703;28;20019;-63
2024/01/04 05:13:01;;;;;;;;;;;4.20;99.90;;;;;;5071636;28;19932;-63
2024/01/04 05:15:27;;;;;;;;;;;4.20;99.90;;;;;;5038601;28;20302;-63
2024/01/04 05:17:53;;;;;;;;;;;4.10;99.90;;;;;;5065105;28;20677;-63
2024/01/04 05:20:19;;;;;;;;;;;4.10;99.90;;;;;;5064695;28;19928;-63
2024/01/04 05:22:45;;;;;;;;;;;4.10;99.90;;;;;;5068696;28;20023;-63
2024/01/04 05:25:12;;;;;;;;;;;4.10;99.90;;;;;;5070163;28;19928;-63
2024/01/04 05:27:38;;;;;;;;;;;4.10;99.90;;;;;;5060173;28;19931;-63
2024/01/04 05:30:07;;;;;;;;;;;4.10;99.90;;;;;;5072356;28;19931;-63
2024/01/04 05:32:34;;;;;;;;;;;4.00;99.90;;;;;;5070872;28;19931;-63
2024/01/04 05:34:59;;;;;;;;;;;4.00;99.90;;;;;;5043500;28;19977;-63
2024/01/04 05:37:25;;;;;;;;;;;4.00;99.90;;;;;;5070386;28;19931;-61
2024/01/04 05:39:51;;;;;;;;;;;4.00;99.90;;;;;;5072633;28;19924;-63
2024/01/04 05:42:16;;;;;;;;;;;4.00;99.90;;;;;;5087768;28;19936;-63
2024/01/04 05:44:42;;;;;;;;;;;3.90;99.90;;;;;;5072925;28;19930;-63
2024/01/04 05:47:07;;;;;;;;;;;3.90;99.90;;;;;;5073021;27;20065;-63
2024/01/04 05:49:33;;;;;;;;;;;3.90;99.90;;;;;;5087171;28;20370;-63
2024/01/04 05:51:59;;;;;;;;;;;3.90;99.90;;;;;;5085538;28;19928;-63
2024/01/04 05:54:24;;;;;;;;;;;3.90;99.90;;;;;;5087476;27;20723;-63
2024/01/04 05:56:50;;;;;;;;;;;3.90;99.90;;;;;;5070761;28;19924;-62
2024/01/04 05:59:16;;;;;;;;;;;3.90;99.90;;;;;;5086784;28;19924;-63
2024/01/04 06:01:41;;;;;;;;;;;3.80;99.90;;;;;;5102869;27;19931;-63
2024/01/04 06:04:07;;;;;;;;;;;3.80;99.90;;;;;;5071148;28;19935;-62
2024/01/04 06:06:32;;;;;;;;;;;3.80;99.90;;;;;;5088622;27;19928;-63
2024/01/04 06:08:58;;;;;;;;;;;3.70;99.90;;;;;;5083494;28;19928;-63
2024/01/04 06:11:24;;;;;;;;;;;3.70;99.90;;;;;;5085296;28;19966;-63
2024/01/04 06:13:50;;;;;;;;;;;3.70;99.90;;;;;;5094758;27;20649;-63
2024/01/04 06:16:17;;;;;;;;;;;3.60;99.90;;;;;;5078745;27;20080;-63
2024/01/04 06:18:42;;;;;;;;;;;3.60;99.90;;;;;;5094832;27;19981;-62
2024/01/04 06:21:08;;;;;;;;;;;3.50;99.90;;;;;;5078921;27;19924;-63
2024/01/04 06:23:33;;;;;;;;;;;3.50;99.90;;;;;;5084360;28;19955;-63
2024/01/04 06:25:59;;;;;;;;;;;3.50;99.90;;;;;;5075444;28;19923;-62
2024/01/04 06:28:25;;;;;;;;;;;3.50;99.90;;;;;;5073112;27;20046;-63
2024/01/04 06:30:50;;;;;;;;;;;3.40;99.90;;;;;;5086685;27;19931;-63
2024/01/04 06:33:17;;;;;;;;;;;3.40;99.90;;;;;;5091837;27;20370;-62
2024/01/04 06:35:43;;;;;;;;;;;3.30;99.90;;;;;;5076608;28;19924;-63
2024/01/04 06:38:09;;;;;;;;;;;3.40;99.90;;;;;;5088467;27;19924;-63
2024/01/04 06:40:38;;;;;;;;;;;3.30;99.90;;;;;;5087601;27;19931;-63
2024/01/04 06:43:08;;;;;;;;;;;3.40;99.90;;;;;;5089036;27;19951;-62
2024/01/04 06:45:34;;;;;;;;;;;3.30;99.90;;;;;;5090843;27;19924;-63
2024/01/04 06:47:59;;;;;;;;;;;3.30;99.90;;;;;;5074835;28;20314;-63
2024/01/04 06:50:25;;;;;;;;;;;3.30;99.90;;;;;;5075022;28;19924;-63
2024/01/04 06:52:50;;;;;;;;;;;3.30;99.90;;;;;;5076035;28;19924;-63
2024/01/04 06:55:16;;;;;;;;;;;3.20;99.90;;;;;;5074573;28;20393;-63
2024/01/04 06:57:41;;;;;;;;;;;3.30;99.90;;;;;;5072774;28;19927;-62
2024/01/04 07:00:08;;;;;;;;;;;3.20;99.90;;;;;;5071337;28;20010;-63
2024/01/04 07:02:35;;;;;;;;;;;3.20;99.90;;;;;;5073999;28;20030;-63
2024/01/04 07:05:11;;;;;;;;;;;3.20;99.90;;;;;;5090899;28;19935;-63
2024/01/04 07:07:37;;;;;;;;;;;3.20;99.90;;;;;;5052643;28;19934;-63
2024/01/04 07:10:03;;;;;;;;;;;3.10;99.90;;;;;;5041537;28;19928;-61
2024/01/04 07:12:28;;;;;;;;;;;3.10;99.90;;;;;;5069239;28;19950;-62
2024/01/04 07:14:54;;;;;;;;;;;3.10;99.90;;;;;;5074349;28;20601;-63
2024/01/04 07:17:20;;;;;;;;;;;3.00;99.90;;;;;;5072888;28;19931;-62
2024/01/04 07:19:46;;;;;;;;;;;3.00;99.90;;;;;;5068295;28;19924;-61
2024/01/04 07:22:12;;;;;;;;;;;3.00;99.90;;;;;;5064786;28;19932;-63
2024/01/04 07:24:38;;;;;;;;;;;2.90;99.90;;;;;;5075182;28;19924;-63
2024/01/04 07:27:04;;;;;;;;;;;2.90;99.90;;;;;;5065516;28;21065;-64
2024/01/04 07:29:30;;;;;;;;;;;2.90;99.90;;;;;;5070001;28;20022;-63
2024/01/04 07:31:55;;;;;;;;;;;2.80;99.90;;;;;;5060656;28;20012;-63
2024/01/04 07:34:21;;;;;;;;;;;2.80;99.90;;;;;;5071401;28;19936;-63
2024/01/04 07:36:47;;;;;;;;;;;2.80;99.90;;;;;;5072635;28;19928;-62
2024/01/04 07:39:13;;;;;;;;;;;2.80;99.90;;;;;;5078158;28;20350;-63
2024/01/04 07:41:38;;;;;;;;;;;2.80;99.90;;;;;;5094794;28;19935;-63
2024/01/04 07:44:04;;;;;;;;;;;2.70;99.90;;;;;;5073525;28;19928;-63
2024/01/04 07:46:30;;;;;;;;;;;2.70;99.90;;;;;;5076251;28;19931;-63
2024/01/04 07:48:56;;;;;;;;;;;2.70;99.90;;;;;;5057848;28;19927;-63
2024/01/04 07:51:22;;;;;;;;;;;2.80;99.90;;;;;;5076757;28;19930;-63
2024/01/04 07:53:48;;;;;;;;;;;2.70;99.90;;;;;;5076033;28;20378;-63
2024/01/04 07:56:14;;;;;;;;;;;2.70;99.90;;;;;;5076418;28;19931;-63
2024/01/04 07:58:39;;;;;;;;;;;2.70;99.90;;;;;;5076856;28;19923;-60
2024/01/04 08:01:05;;;;;;;;;;;2.80;99.90;;;;;;5078938;28;20501;-63
2024/01/04 08:03:31;;;;;;;;;;;2.70;99.90;;;;;;5070396;28;19932;-63
2024/01/04 08:05:56;;;;;;;;;;;2.70;99.90;;;;;;5095097;28;20564;-63
2024/01/04 08:08:22;;;;;;;;;;;2.70;99.90;;;;;;5058338;28;19938;-63
2024/01/04 08:10:47;;;;;;;;;;;2.70;99.90;;;;;;5072761;28;20375;-63
2024/01/04 08:13:16;;;;;;;;;;;2.70;99.90;;;;;;5062545;28;19923;-63
2024/01/04 08:15:42;;;;;;;;;;;2.70;99.90;;;;;;5070133;28;19972;-63
2024/01/04 08:18:07;;;;;;;;;;;2.70;99.90;;;;;;5072028;28;19928;-62
2024/01/04 08:20:33;;;;;;;;;;;2.70;99.90;;;;;;5076220;28;19928;-63
2024/01/04 08:22:59;;;;;;;;;;;2.70;99.90;;;;;;5058714;28;19931;-63
2024/01/04 08:25:24;;;;;;;;;;;2.70;99.90;;;;;;5072626;28;20355;-63
2024/01/04 08:27:50;;;;;;;;;;;2.70;99.90;;;;;;5068616;28;19928;-62
2024/01/04 08:30:16;;;;;;;;;;;2.70;99.90;;;;;;5064641;28;20440;-63
2024/01/04 08:32:41;;;;;;;;;;;2.70;99.90;;;;;;5075427;28;19923;-61
2024/01/04 08:35:07;;;;;;;;;;;2.80;99.90;;;;;;5070809;28;19928;-63
2024/01/04 08:37:33;;;;;;;;;;;2.80;99.90;;;;;;5076904;28;19923;-63
2024/01/04 08:39:58;;;;;;;;;;;2.80;99.90;;;;;;5082927;28;19931;-62
2024/01/04 08:42:24;;;;;;;;;;;2.80;99.90;;;;;;5067910;28;20016;-63
2024/01/04 08:44:49;;;;;;;;;;;2.90;99.90;;;;;;5076324;28;19976;-62
2024/01/04 08:47:15;;;;;;;;;;;2.90;99.90;;;;;;5068649;28;19927;-63
2024/01/04 08:49:40;;;;;;;;;;;2.90;99.90;;;;;;5115231;27;20369;-63
2024/01/04 08:52:06;;;;;;;;;;;2.90;99.90;;;;;;5098588;27;19927;-63
2024/01/04 08:54:32;;;;;;;;;;;3.00;99.90;;;;;;5082395;27;20018;-62
2024/01/04 08:56:57;;;;;;;;;;;3.00;99.90;;;;;;5095558;27;19924;-63
2024/01/04 08:59:23;;;;;;;;;;;3.10;99.90;;;;;;5100752;27;19923;-63
2024/01/04 09:01:48;;;;;;;;;;;3.20;99.90;;;;;;5097615;28;20008;-62
2024/01/04 09:04:14;;;;;;;;;;;3.30;99.90;;;;;;5096002;27;19924;-63
2024/01/04 09:06:40;;;;;;;;;;;3.30;99.90;;;;;;5079055;27;19970;-62
2024/01/04 09:09:07;;;;;;;;;;;3.40;99.90;;;;;;5119806;27;19930;-62
2024/01/04 09:11:38;;;;;;;;;;;3.40;99.90;;;;;;5092005;28;19946;-62
2024/01/04 09:14:07;;;;;;;;;;;3.40;99.90;;;;;;5085838;28;20011;-63
2024/01/04 09:16:34;;;;;;;;;;;3.40;99.90;;;;;;5093211;28;19927;-63
2024/01/04 09:19:00;;;;;;;;;;;3.40;99.90;;;;;;5096017;28;19935;-62
2024/01/04 09:21:26;;;;;;;;;;;3.40;99.90;;;;;;5096909;28;20320;-62
2024/01/04 09:23:52;;;;;;;;;;;3.40;99.90;;;;;;5093834;28;20002;-63
2024/01/04 09:26:18;;;;;;;;;;;3.30;99.90;;;;;;5086894;28;19935;-64
2024/01/04 09:28:44;;;;;;;;;;;3.20;99.90;;;;;;5114445;28;19923;-63
2024/01/04 09:31:09;;;;;;;;;;;3.30;99.90;;;;;;5083182;28;20023;-63
2024/01/04 09:33:35;;;;;;;;;;;3.30;99.90;;;;;;5093066;28;19984;-62
2024/01/04 09:36:01;;;;;;;;;;;3.30;99.90;;;;;;5076477;28;19927;-63
2024/01/04 09:38:27;;;;;;;;;;;3.30;99.90;;;;;;5078378;28;19927;-63
2024/01/04 09:40:57;;;;;;;;;;;3.30;99.90;;;;;;5087624;28;20389;-62
2024/01/04 09:43:23;;;;;;;;;;;3.30;99.90;;;;;;5089541;28;19971;-62
2024/01/04 09:45:49;;;;;;;;;;;3.30;99.90;;;;;;5107126;28;20377;-63
2024/01/04 09:48:17;;;;;;;;;;;3.40;99.90;;;;;;5066233;28;19932;-62
2024/01/04 09:50:43;;;;;;;;;;;3.40;99.90;;;;;;5084093;28;19928;-61
2024/01/04 09:53:09;;;;;;;;;;;3.40;99.90;;;;;;5084150;28;19928;-63
2024/01/04 09:55:35;;;;;;;;;;;3.40;99.90;;;;;;5090522;28;19940;-63
2024/01/04 09:58:03;;;;;;;;;;;3.40;99.90;;;;;;5085728;28;19973;-63
2024/01/04 10:00:28;;;;;;;;;;;3.40;99.90;;;;;;5081408;28;20073;-63
2024/01/04 10:02:54;;;;;;;;;;;3.50;99.90;;;;;;5085804;28;19928;-63
2024/01/04 10:05:20;;;;;;;;;;;3.50;99.90;;;;;;5062670;28;20410;-63
2024/01/04 10:07:56;;;;;;;;;;;3.60;99.90;;;;;;5084750;28;19931;-63
2024/01/04 10:10:23;;;;;;;;;;;3.70;99.90;;;;;;5090762;28;19969;-63
2024/01/04 10:12:49;;;;;;;;;;;3.70;99.90;;;;;;5084721;28;19962;-63
2024/01/04 10:15:15;;;;;;;;;;;3.90;99.90;;;;;;5072422;28;19947;-63
2024/01/04 10:17:41;;;;;;;;;;;3.90;99.90;;;;;;5090431;28;19924;-62
2024/01/04 10:20:08;;;;;;;;;;;4.00;99.90;;;;;;5092094;28;19966;-62
2024/01/04 10:22:33;;;;;;;;;;;4.20;99.90;;;;;;5089097;28;19928;-63
2024/01/04 10:25:06;;;;;;;;;;;4.30;99.90;;;;;;5086472;28;19923;-63
2024/01/04 10:27:31;;;;;;;;;;;4.40;99.90;;;;;;5075276;28;19924;-63
2024/01/04 10:30:02;;;;;;;;;;;4.40;99.90;;;;;;5072222;28;20390;-62
2024/01/04 10:32:28;;;;;;;;;;;4.60;99.90;;;;;;5085299;28;20528;-63
2024/01/04 10:35:01;;;;;;;;;;;4.70;99.90;;;;;;5091139;28;19924;-62
2024/01/04 10:37:27;;;;;;;;;;;4.80;99.90;;;;;;5094528;28;19931;-63
2024/01/04 10:39:56;;;;;;;;;;;4.80;99.90;;;;;;5089872;28;20480;-63
2024/01/04 10:42:22;;;;;;;;;;;4.90;99.90;;;;;;5056538;28;20018;-63
2024/01/04 10:44:51;;;;;;;;;;;4.80;99.90;;;;;;5084709;28;20366;-62
2024/01/04 10:47:17;;;;;;;;;;;4.80;99.90;;;;;;5083236;28;19932;-62
2024/01/04 10:49:45;;;;;;;;;;;4.70;99.90;;;;;;5091902;28;19931;-63
2024/01/04 10:52:14;;;;;;;;;;;4.60;99.90;;;;;;5070460;28;20726;-63
2024/01/04 10:54:41;;;;;;;;;;;4.50;99.90;;;;;;5070293;28;20014;-63
2024/01/04 10:57:08;;;;;;;;;;;4.50;99.90;;;;;;5069422;28;20297;-63
2024/01/04 10:59:34;;;;;;;;;;;4.50;99.90;;;;;;5069308;28;19924;-63
2024/01/04 11:02:00;;;;;;;;;;;4.60;99.90;;;;;;5049476;28;19935;-63
2024/01/04 11:04:26;;;;;;;;;;;4.60;99.90;;;;;;5067596;28;19980;-63
2024/01/04 11:06:52;;;;;;;;;;;4.70;99.90;;;;;;5040488;28;19981;-62
2024/01/04 11:09:23;;;;;;;;;;;4.70;99.90;;;;;;5089384;28;20328;-63
2024/01/04 11:11:49;;;;;;;;;;;4.70;99.90;;;;;;5085019;28;20285;-63
2024/01/04 11:14:15;;;;;;;;;;;4.70;99.90;;;;;;5055357;28;20526;-63
2024/01/04 11:16:41;;;;;;;;;;;4.80;99.90;;;;;;5067323;28;20613;-63
2024/01/04 11:19:06;;;;;;;;;;;4.80;99.90;;;;;;5056168;28;19951;-63
2024/01/04 11:21:38;;;;;;;;;;;4.70;99.90;;;;;;5067872;28;19924;-63
2024/01/04 11:24:05;;;;;;;;;;;4.80;99.90;;;;;;5067486;28;19951;-62
2024/01/04 11:26:56;;;;;;;;;;;4.70;99.90;;;;;;5066971;28;19964;-63
2024/01/04 11:29:23;;;;;;;;;;;4.80;99.90;;;;;;5067985;28;20055;-62
2024/01/04 11:31:49;;;;;;;;;;;4.90;99.90;;;;;;5069229;28;20025;-63
2024/01/04 11:34:14;;;;;;;;;;;4.90;99.90;;;;;;5071724;28;19923;-62
2024/01/04 11:36:40;;;;;;;;;;;5.00;99.90;;;;;;5066319;28;20286;-63
2024/01/04 11:39:06;;;;;;;;;;;5.00;99.90;;;;;;5070295;28;20150;-63
2024/01/04 11:41:32;;;;;;;;;;;5.10;99.90;;;;;;5066225;28;19923;-63
2024/01/04 11:43:58;;;;;;;;;;;5.00;99.90;;;;;;5051167;28;19932;-63
2024/01/04 11:46:26;;;;;;;;;;;5.00;99.90;;;;;;5057454;28;19932;-63
2024/01/04 11:48:56;;;;;;;;;;;5.10;99.90;;;;;;5067678;28;19931;-63
2024/01/04 11:51:31;;;;;;;;;;;5.10;99.90;;;;;;5066295;28;19973;-63
2024/01/04 11:53:57;;;;;;;;;;;5.10;99.90;;;;;;5068398;28;19934;-63
2024/01/04 11:56:24;;;;;;;;;;;5.20;99.90;;;;;;5086896;28;20035;-63
2024/01/04 11:58:49;;;;;;;;;;;5.20;99.90;;;;;;5088129;28;20294;-63
2024/01/04 12:01:22;;;;;;;;;;;5.20;99.90;;;;;;5051812;28;19923;-62
2024/01/04 12:03:47;;;;;;;;;;;5.20;99.90;;;;;;5066336;28;19935;-63
2024/01/04 12:06:13;;;;;;;;;;;5.30;99.90;;;;;;5065312;28;19963;-62
2024/01/04 12:08:39;;;;;;;;;;;5.20;99.90;;;;;;5062084;28;19928;-63
2024/01/04 12:11:04;;;;;;;;;;;5.30;99.90;;;;;;5068461;28;19978;-62
2024/01/04 12:13:31;;;;;;;;;;;5.30;99.90;;;;;;5086580;28;20295;-62
2024/01/04 12:15:57;;;;;;;;;;;5.40;99.90;;;;;;5052938;28;20020;-62
2024/01/04 12:18:22;;;;;;;;;;;5.40;99.90;;;;;;5065732;28;19928;-63
2024/01/04 12:20:48;;;;;;;;;;;5.40;99.90;;;;;;5072093;28;19931;-63
2024/01/04 12:23:14;;;;;;;;;;;5.40;99.90;;;;;;5069676;28;19935;-62
2024/01/04 12:25:40;;;;;;;;;;;5.50;99.90;;;;;;5054957;28;19924;-63
2024/01/04 12:28:06;;;;;;;;;;;5.50;99.90;;;;;;5066681;28;19966;-63
2024/01/04 12:30:32;;;;;;;;;;;5.40;99.90;;;;;;5062649;28;19928;-62
2024/01/04 12:32:58;;;;;;;;;;;5.40;99.90;;;;;;5068083;28;19923;-63
2024/01/04 12:35:23;;;;;;;;;;;5.40;99.90;;;;;;5070359;28;19923;-62
2024/01/04 12:37:59;;;;;;;;;;;5.40;99.90;;;;;;5069275;28;20055;-63
2024/01/04 12:40:25;;;;;;;;;;;5.30;99.90;;;;;;5066713;28;19927;-63
2024/01/04 12:42:50;;;;;;;;;;;5.30;99.90;;;;;;5068599;28;20001;-63
2024/01/04 12:45:16;;;;;;;;;;;5.30;99.90;;;;;;5072692;28;20639;-62
2024/01/04 12:47:42;;;;;;;;;;;5.30;99.90;;;;;;5045283;28;19936;-63
2024/01/04 12:50:09;;;;;;;;;;;5.40;99.90;;;;;;5069140;28;19981;-62
2024/01/04 12:52:37;;;;;;;;;;;5.40;99.90;;;;;;5067290;28;19928;-63
2024/01/04 12:55:03;;;;;;;;;;;5.30;99.90;;;;;;5065431;28;20099;-63
2024/01/04 12:57:29;;;;;;;;;;;5.40;99.90;;;;;;5066955;28;19973;-62
2024/01/04 12:59:54;;;;;;;;;;;5.30;99.90;;;;;;5071628;28;19928;-63
2024/01/04 13:02:20;;;;;;;;;;;5.30;99.90;;;;;;5059774;28;19932;-62
2024/01/04 13:04:46;;;;;;;;;;;5.30;99.90;;;;;;5085317;28;19924;-63
2024/01/04 13:07:12;;;;;;;;;;;5.30;99.90;;;;;;5085668;28;19974;-63
2024/01/04 13:09:37;;;;;;;;;;;5.30;99.90;;;;;;5064123;28;19985;-62
2024/01/04 13:12:04;;;;;;;;;;;5.30;99.90;;;;;;5066345;28;19967;-64
2024/01/04 13:14:30;;;;;;;;;;;5.40;99.90;;;;;;5090289;28;19924;-63
2024/01/04 13:16:55;;;;;;;;;;;5.40;99.90;;;;;;5097614;28;19976;-63
2024/01/04 13:19:21;;;;;;;;;;;5.40;99.90;;;;;;5057438;28;19924;-63
2024/01/04 13:21:46;;;;;;;;;;;5.40;99.90;;;;;;5075021;28;19935;-63
2024/01/04 13:24:12;;;;;;;;;;;5.40;99.90;;;;;;5096778;28;20374;-63
2024/01/04 13:26:39;;;;;;;;;;;5.50;99.90;;;;;;5073751;28;19924;-63
2024/01/04 13:29:06;;;;;;;;;;;5.40;99.90;;;;;;5079924;28;20330;-62
2024/01/04 13:31:32;;;;;;;;;;;5.50;99.90;;;;;;5059613;28;19935;-62
2024/01/04 13:33:58;;;;;;;;;;;5.50;99.90;;;;;;5072738;28;20305;-63
2024/01/04 13:36:24;;;;;;;;;;;5.60;99.90;;;;;;5067130;28;20473;-63
2024/01/04 13:38:50;;;;;;;;;;;5.60;99.90;;;;;;5093857;28;19927;-63
2024/01/04 13:41:15;;;;;;;;;;;5.60;99.90;;;;;;5075432;28;19935;-63
2024/01/04 13:43:41;;;;;;;;;;;5.60;99.90;;;;;;5075583;28;19943;-63
2024/01/04 13:46:06;;;;;;;;;;;5.60;99.90;;;;;;5068350;28;20015;-63
2024/01/04 13:48:32;;;;;;;;;;;5.50;99.90;;;;;;5100427;27;20399;-63
2024/01/04 13:50:58;;;;;;;;;;;5.40;99.90;;;;;;5097035;27;19927;-63
2024/01/04 13:53:24;;;;;;;;;;;5.40;99.90;;;;;;5095637;27;19958;-61
2024/01/04 13:55:50;;;;;;;;;;;5.40;99.90;;;;;;5098876;27;20041;-63
2024/01/04 13:58:16;;;;;;;;;;;5.40;99.90;;;;;;5099129;27;20336;-63
2024/01/04 14:00:42;;;;;;;;;;;5.40;99.90;;;;;;5103222;27;19923;-63
2024/01/04 14:03:08;;;;;;;;;;;5.40;99.90;;;;;;5077313;27;20000;-63
2024/01/04 14:05:34;;;;;;;;;;;5.40;99.90;;;;;;5113866;27;19962;-62
2024/01/04 14:07:59;;;;;;;;;;;5.50;99.90;;;;;;5075584;27;20010;-63
2024/01/04 14:10:27;;;;;;;;;;;5.40;99.90;;;;;;5091718;27;19930;-63
2024/01/04 14:12:52;;;;;;;;;;;5.30;99.90;;;;;;5094455;27;19923;-63
2024/01/04 14:15:18;;;;;;;;;;;5.30;99.90;;;;;;5091287;27;20297;-63
2024/01/04 14:17:44;;;;;;;;;;;5.20;99.90;;;;;;5061185;27;20442;-62
2024/01/04 14:20:10;;;;;;;;;;;5.20;99.90;;;;;;5080745;27;20020;-63
2024/01/04 14:22:36;;;;;;;;;;;5.20;99.90;;;;;;5096157;27;20588;-62
2024/01/04 14:25:02;;;;;;;;;;;5.10;99.90;;;;;;5085574;27;20257;-63